sensor_id;sensor_type;location;lat;lon;timestamp;P1;durP1;ratioP1;P2;durP2;ratioP2
70929;SDS011;58588;48.102;19.682;2023-08-06T00:01:15;14.30;;;6.93;;
70929;SDS011;58588;48.102;19.682;2023-08-06T00:04:18;12.80;;;7.10;;
70929;SDS011;58588;48.102;19.682;2023-08-06T00:07:20;11.15;;;6.75;;
70929;SDS011;58588;48.102;19.682;2023-08-06T00:10:22;12.65;;;6.93;;
70929;SDS011;58588;48.102;19.682;2023-08-06T00:13:26;13.25;;;6.90;;
70929;SDS011;58588;48.102;19.682;2023-08-06T00:16:27;12.68;;;7.32;;
70929;SDS011;58588;48.102;19.682;2023-08-06T00:19:29;13.23;;;7.00;;
70929;SDS011;58588;48.102;19.682;2023-08-06T00:22:32;12.52;;;7.50;;
70929;SDS011;58588;48.102;19.682;2023-08-06T00:25:34;12.13;;;7.63;;
70929;SDS011;58588;48.102;19.682;2023-08-06T00:28:37;13.55;;;7.93;;
70929;SDS011;58588;48.102;19.682;2023-08-06T00:31:39;12.30;;;8.07;;
70929;SDS011;58588;48.102;19.682;2023-08-06T00:34:41;13.63;;;7.50;;
70929;SDS011;58588;48.102;19.682;2023-08-06T00:37:43;14.50;;;7.93;;
70929;SDS011;58588;48.102;19.682;2023-08-06T00:40:45;16.58;;;9.20;;
70929;SDS011;58588;48.102;19.682;2023-08-06T00:43:48;16.20;;;9.45;;
70929;SDS011;58588;48.102;19.682;2023-08-06T00:46:50;17.92;;;9.77;;
70929;SDS011;58588;48.102;19.682;2023-08-06T00:49:52;17.10;;;10.47;;
70929;SDS011;58588;48.102;19.682;2023-08-06T00:52:54;18.10;;;10.30;;
70929;SDS011;58588;48.102;19.682;2023-08-06T00:55:56;19.13;;;11.00;;
70929;SDS011;58588;48.102;19.682;2023-08-06T00:59:00;18.23;;;10.68;;
70929;SDS011;58588;48.102;19.682;2023-08-06T01:02:03;19.40;;;11.20;;
70929;SDS011;58588;48.102;19.682;2023-08-06T01:05:05;19.87;;;11.60;;
70929;SDS011;58588;48.102;19.682;2023-08-06T01:08:11;23.38;;;12.35;;
70929;SDS011;58588;48.102;19.682;2023-08-06T01:11:37;19.77;;;11.32;;
70929;SDS011;58588;48.102;19.682;2023-08-06T01:14:47;18.85;;;9.90;;
70929;SDS011;58588;48.102;19.682;2023-08-06T01:17:55;20.13;;;10.35;;
70929;SDS011;58588;48.102;19.682;2023-08-06T01:20:58;20.57;;;11.00;;
70929;SDS011;58588;48.102;19.682;2023-08-06T01:24:00;17.27;;;10.23;;
70929;SDS011;58588;48.102;19.682;2023-08-06T01:27:03;18.00;;;10.48;;
70929;SDS011;58588;48.102;19.682;2023-08-06T01:30:11;19.20;;;10.90;;
70929;SDS011;58588;48.102;19.682;2023-08-06T01:33:19;17.70;;;10.52;;
70929;SDS011;58588;48.102;19.682;2023-08-06T01:36:25;17.43;;;11.03;;
70929;SDS011;58588;48.102;19.682;2023-08-06T01:39:29;18.52;;;10.98;;
70929;SDS011;58588;48.102;19.682;2023-08-06T01:42:34;21.50;;;10.88;;
70929;SDS011;58588;48.102;19.682;2023-08-06T01:45:36;17.80;;;10.27;;
70929;SDS011;58588;48.102;19.682;2023-08-06T01:48:38;17.92;;;10.48;;
70929;SDS011;58588;48.102;19.682;2023-08-06T01:51:41;18.50;;;11.07;;
70929;SDS011;58588;48.102;19.682;2023-08-06T01:54:43;21.02;;;10.68;;
70929;SDS011;58588;48.102;19.682;2023-08-06T01:57:45;19.48;;;10.93;;
70929;SDS011;58588;48.102;19.682;2023-08-06T02:00:47;18.08;;;10.02;;
70929;SDS011;58588;48.102;19.682;2023-08-06T02:03:48;18.98;;;9.95;;
70929;SDS011;58588;48.102;19.682;2023-08-06T02:06:54;17.03;;;10.33;;
70929;SDS011;58588;48.102;19.682;2023-08-06T02:09:56;22.13;;;10.23;;
70929;SDS011;58588;48.102;19.682;2023-08-06T02:12:57;18.23;;;9.77;;
70929;SDS011;58588;48.102;19.682;2023-08-06T02:15:59;18.20;;;10.30;;
70929;SDS011;58588;48.102;19.682;2023-08-06T02:19:01;17.95;;;9.80;;
70929;SDS011;58588;48.102;19.682;2023-08-06T02:22:05;24.23;;;10.40;;
70929;SDS011;58588;48.102;19.682;2023-08-06T02:25:07;16.90;;;9.63;;
70929;SDS011;58588;48.102;19.682;2023-08-06T02:28:09;15.35;;;9.35;;
70929;SDS011;58588;48.102;19.682;2023-08-06T02:31:11;14.93;;;9.40;;
70929;SDS011;58588;48.102;19.682;2023-08-06T02:34:12;18.30;;;10.68;;
70929;SDS011;58588;48.102;19.682;2023-08-06T02:37:16;17.87;;;10.47;;
70929;SDS011;58588;48.102;19.682;2023-08-06T02:40:18;18.90;;;11.18;;
70929;SDS011;58588;48.102;19.682;2023-08-06T02:43:20;17.00;;;10.32;;
70929;SDS011;58588;48.102;19.682;2023-08-06T02:46:21;15.88;;;9.98;;
70929;SDS011;58588;48.102;19.682;2023-08-06T02:49:23;16.67;;;9.30;;
70929;SDS011;58588;48.102;19.682;2023-08-06T02:52:27;16.73;;;9.40;;
70929;SDS011;58588;48.102;19.682;2023-08-06T02:55:28;16.20;;;9.85;;
70929;SDS011;58588;48.102;19.682;2023-08-06T02:58:30;15.55;;;9.30;;
70929;SDS011;58588;48.102;19.682;2023-08-06T03:01:32;17.25;;;9.98;;
70929;SDS011;58588;48.102;19.682;2023-08-06T03:04:34;15.82;;;9.82;;
70929;SDS011;58588;48.102;19.682;2023-08-06T03:07:37;17.33;;;8.80;;
70929;SDS011;58588;48.102;19.682;2023-08-06T03:10:39;13.45;;;7.93;;
70929;SDS011;58588;48.102;19.682;2023-08-06T03:13:41;12.85;;;7.72;;
70929;SDS011;58588;48.102;19.682;2023-08-06T03:16:43;10.38;;;6.13;;
70929;SDS011;58588;48.102;19.682;2023-08-06T03:19:45;11.02;;;5.65;;
70929;SDS011;58588;48.102;19.682;2023-08-06T03:22:48;9.63;;;4.80;;
70929;SDS011;58588;48.102;19.682;2023-08-06T03:25:51;8.70;;;4.65;;
70929;SDS011;58588;48.102;19.682;2023-08-06T03:28:53;8.13;;;4.10;;
70929;SDS011;58588;48.102;19.682;2023-08-06T03:31:55;9.63;;;4.22;;
70929;SDS011;58588;48.102;19.682;2023-08-06T03:34:56;10.68;;;4.80;;
70929;SDS011;58588;48.102;19.682;2023-08-06T03:38:00;9.77;;;4.50;;
70929;SDS011;58588;48.102;19.682;2023-08-06T03:41:01;8.45;;;3.33;;
70929;SDS011;58588;48.102;19.682;2023-08-06T03:44:03;7.55;;;3.15;;
70929;SDS011;58588;48.102;19.682;2023-08-06T03:47:05;6.40;;;2.60;;
70929;SDS011;58588;48.102;19.682;2023-08-06T03:50:07;7.93;;;2.58;;
70929;SDS011;58588;48.102;19.682;2023-08-06T03:53:11;10.17;;;2.93;;
70929;SDS011;58588;48.102;19.682;2023-08-06T03:56:13;8.20;;;2.78;;
70929;SDS011;58588;48.102;19.682;2023-08-06T03:59:15;7.18;;;2.90;;
70929;SDS011;58588;48.102;19.682;2023-08-06T04:02:17;6.68;;;2.92;;
70929;SDS011;58588;48.102;19.682;2023-08-06T04:05:19;11.20;;;3.80;;
70929;SDS011;58588;48.102;19.682;2023-08-06T04:08:22;8.77;;;4.00;;
70929;SDS011;58588;48.102;19.682;2023-08-06T04:11:24;8.85;;;4.68;;
70929;SDS011;58588;48.102;19.682;2023-08-06T04:14:26;10.02;;;4.88;;
70929;SDS011;58588;48.102;19.682;2023-08-06T04:17:29;10.00;;;5.53;;
70929;SDS011;58588;48.102;19.682;2023-08-06T04:20:30;10.68;;;5.22;;
70929;SDS011;58588;48.102;19.682;2023-08-06T04:23:34;10.57;;;5.60;;
70929;SDS011;58588;48.102;19.682;2023-08-06T04:26:36;11.43;;;5.38;;
70929;SDS011;58588;48.102;19.682;2023-08-06T04:29:38;10.50;;;4.95;;
70929;SDS011;58588;48.102;19.682;2023-08-06T04:32:40;16.60;;;5.60;;
70929;SDS011;58588;48.102;19.682;2023-08-06T04:35:42;10.07;;;5.68;;
70929;SDS011;58588;48.102;19.682;2023-08-06T04:38:46;9.63;;;5.07;;
70929;SDS011;58588;48.102;19.682;2023-08-06T04:41:48;10.10;;;5.18;;
70929;SDS011;58588;48.102;19.682;2023-08-06T04:44:50;9.60;;;5.28;;
70929;SDS011;58588;48.102;19.682;2023-08-06T04:47:52;10.48;;;5.05;;
70929;SDS011;58588;48.102;19.682;2023-08-06T04:50:53;9.88;;;4.82;;
70929;SDS011;58588;48.102;19.682;2023-08-06T04:53:57;9.27;;;4.37;;
70929;SDS011;58588;48.102;19.682;2023-08-06T04:56:59;9.40;;;4.43;;
70929;SDS011;58588;48.102;19.682;2023-08-06T05:00:01;9.10;;;4.05;;
70929;SDS011;58588;48.102;19.682;2023-08-06T05:03:05;8.10;;;4.00;;
70929;SDS011;58588;48.102;19.682;2023-08-06T05:06:07;8.77;;;3.55;;
70929;SDS011;58588;48.102;19.682;2023-08-06T05:09:10;7.50;;;3.17;;
70929;SDS011;58588;48.102;19.682;2023-08-06T05:12:12;12.32;;;3.40;;
70929;SDS011;58588;48.102;19.682;2023-08-06T05:15:14;6.82;;;3.10;;
70929;SDS011;58588;48.102;19.682;2023-08-06T05:18:16;5.88;;;2.50;;
70929;SDS011;58588;48.102;19.682;2023-08-06T05:21:18;5.88;;;2.50;;
70929;SDS011;58588;48.102;19.682;2023-08-06T05:24:21;6.63;;;2.70;;
70929;SDS011;58588;48.102;19.682;2023-08-06T05:27:23;5.68;;;2.47;;
70929;SDS011;58588;48.102;19.682;2023-08-06T05:30:25;6.25;;;2.55;;
70929;SDS011;58588;48.102;19.682;2023-08-06T05:33:27;7.55;;;2.55;;
70929;SDS011;58588;48.102;19.682;2023-08-06T05:36:29;6.00;;;2.78;;
70929;SDS011;58588;48.102;19.682;2023-08-06T05:39:32;8.20;;;2.50;;
70929;SDS011;58588;48.102;19.682;2023-08-06T05:42:34;6.50;;;2.80;;
70929;SDS011;58588;48.102;19.682;2023-08-06T05:45:35;5.93;;;2.55;;
70929;SDS011;58588;48.102;19.682;2023-08-06T05:48:37;6.60;;;2.50;;
70929;SDS011;58588;48.102;19.682;2023-08-06T05:51:41;6.05;;;2.30;;
70929;SDS011;58588;48.102;19.682;2023-08-06T05:54:44;5.87;;;2.03;;
70929;SDS011;58588;48.102;19.682;2023-08-06T05:57:46;5.30;;;1.90;;
70929;SDS011;58588;48.102;19.682;2023-08-06T06:00:48;5.10;;;1.88;;
70929;SDS011;58588;48.102;19.682;2023-08-06T06:03:50;5.15;;;1.60;;
70929;SDS011;58588;48.102;19.682;2023-08-06T06:06:51;4.70;;;1.17;;
70929;SDS011;58588;48.102;19.682;2023-08-06T06:09:55;4.53;;;1.17;;
70929;SDS011;58588;48.102;19.682;2023-08-06T06:12:57;4.20;;;1.30;;
70929;SDS011;58588;48.102;19.682;2023-08-06T06:15:59;6.20;;;1.45;;
70929;SDS011;58588;48.102;19.682;2023-08-06T06:19:00;7.13;;;1.77;;
70929;SDS011;58588;48.102;19.682;2023-08-06T06:22:02;5.22;;;1.83;;
70929;SDS011;58588;48.102;19.682;2023-08-06T06:25:06;5.50;;;2.00;;
70929;SDS011;58588;48.102;19.682;2023-08-06T06:28:09;7.63;;;2.17;;
70929;SDS011;58588;48.102;19.682;2023-08-06T06:31:11;6.35;;;2.15;;
70929;SDS011;58588;48.102;19.682;2023-08-06T06:34:13;6.53;;;2.10;;
70929;SDS011;58588;48.102;19.682;2023-08-06T06:37:15;5.18;;;1.85;;
70929;SDS011;58588;48.102;19.682;2023-08-06T06:40:18;5.10;;;1.90;;
70929;SDS011;58588;48.102;19.682;2023-08-06T06:43:20;5.95;;;1.83;;
70929;SDS011;58588;48.102;19.682;2023-08-06T06:46:22;4.90;;;1.73;;
70929;SDS011;58588;48.102;19.682;2023-08-06T06:49:24;5.20;;;1.70;;
70929;SDS011;58588;48.102;19.682;2023-08-06T06:52:26;5.50;;;1.55;;
70929;SDS011;58588;48.102;19.682;2023-08-06T06:55:29;5.10;;;1.50;;
70929;SDS011;58588;48.102;19.682;2023-08-06T06:58:31;4.72;;;1.65;;
70929;SDS011;58588;48.102;19.682;2023-08-06T07:01:33;4.43;;;1.40;;
70929;SDS011;58588;48.102;19.682;2023-08-06T07:04:35;4.95;;;1.58;;
70929;SDS011;58588;48.102;19.682;2023-08-06T07:07:37;5.13;;;1.70;;
70929;SDS011;58588;48.102;19.682;2023-08-06T07:10:41;4.63;;;1.60;;
70929;SDS011;58588;48.102;19.682;2023-08-06T07:13:43;5.28;;;1.70;;
70929;SDS011;58588;48.102;19.682;2023-08-06T07:16:45;7.22;;;1.80;;
70929;SDS011;58588;48.102;19.682;2023-08-06T07:19:47;4.72;;;1.50;;
70929;SDS011;58588;48.102;19.682;2023-08-06T07:22:49;5.60;;;1.30;;
70929;SDS011;58588;48.102;19.682;2023-08-06T07:25:52;5.20;;;1.27;;
70929;SDS011;58588;48.102;19.682;2023-08-06T07:28:54;5.32;;;1.20;;
70929;SDS011;58588;48.102;19.682;2023-08-06T07:31:56;6.05;;;1.17;;
70929;SDS011;58588;48.102;19.682;2023-08-06T07:34:58;4.25;;;1.20;;
70929;SDS011;58588;48.102;19.682;2023-08-06T07:38:01;5.07;;;1.52;;
70929;SDS011;58588;48.102;19.682;2023-08-06T07:41:04;5.03;;;1.50;;
70929;SDS011;58588;48.102;19.682;2023-08-06T07:44:06;6.60;;;1.80;;
70929;SDS011;58588;48.102;19.682;2023-08-06T07:47:08;4.50;;;1.40;;
70929;SDS011;58588;48.102;19.682;2023-08-06T07:50:09;3.80;;;1.00;;
70929;SDS011;58588;48.102;19.682;2023-08-06T07:53:11;3.70;;;0.90;;
70929;SDS011;58588;48.102;19.682;2023-08-06T07:56:15;3.37;;;0.70;;
70929;SDS011;58588;48.102;19.682;2023-08-06T07:59:16;3.22;;;0.40;;
70929;SDS011;58588;48.102;19.682;2023-08-06T08:02:19;2.38;;;0.50;;
70929;SDS011;58588;48.102;19.682;2023-08-06T08:05:21;1.42;;;0.28;;
70929;SDS011;58588;48.102;19.682;2023-08-06T08:08:24;2.35;;;0.40;;
70929;SDS011;58588;48.102;19.682;2023-08-06T08:11:27;1.93;;;0.30;;
70929;SDS011;58588;48.102;19.682;2023-08-06T08:14:29;1.55;;;0.30;;
70929;SDS011;58588;48.102;19.682;2023-08-06T08:17:35;1.92;;;0.30;;
70929;SDS011;58588;48.102;19.682;2023-08-06T08:20:37;1.55;;;0.30;;
70929;SDS011;58588;48.102;19.682;2023-08-06T08:23:39;4.07;;;0.30;;
70929;SDS011;58588;48.102;19.682;2023-08-06T08:26:43;1.77;;;0.30;;
70929;SDS011;58588;48.102;19.682;2023-08-06T08:29:45;3.47;;;0.30;;
70929;SDS011;58588;48.102;19.682;2023-08-06T08:32:47;1.67;;;0.30;;
70929;SDS011;58588;48.102;19.682;2023-08-06T08:35:49;2.30;;;0.30;;
70929;SDS011;58588;48.102;19.682;2023-08-06T08:38:51;1.77;;;0.30;;
70929;SDS011;58588;48.102;19.682;2023-08-06T08:41:55;1.27;;;0.20;;
70929;SDS011;58588;48.102;19.682;2023-08-06T08:44:57;1.40;;;0.30;;
70929;SDS011;58588;48.102;19.682;2023-08-06T08:47:59;1.42;;;0.20;;
70929;SDS011;58588;48.102;19.682;2023-08-06T08:51:02;1.38;;;0.30;;
70929;SDS011;58588;48.102;19.682;2023-08-06T08:54:10;1.80;;;0.30;;
70929;SDS011;58588;48.102;19.682;2023-08-06T08:57:18;3.27;;;0.30;;
70929;SDS011;58588;48.102;19.682;2023-08-06T09:00:20;1.13;;;0.20;;
70929;SDS011;58588;48.102;19.682;2023-08-06T09:03:22;1.58;;;0.20;;
70929;SDS011;58588;48.102;19.682;2023-08-06T09:06:25;2.53;;;0.30;;
70929;SDS011;58588;48.102;19.682;2023-08-06T09:09:30;2.17;;;0.23;;
70929;SDS011;58588;48.102;19.682;2023-08-06T09:12:38;3.43;;;0.40;;
70929;SDS011;58588;48.102;19.682;2023-08-06T09:15:40;1.42;;;0.25;;
70929;SDS011;58588;48.102;19.682;2023-08-06T09:18:44;1.75;;;0.30;;
70929;SDS011;58588;48.102;19.682;2023-08-06T09:21:46;1.92;;;0.30;;
70929;SDS011;58588;48.102;19.682;2023-08-06T09:24:49;3.60;;;0.40;;
70929;SDS011;58588;48.102;19.682;2023-08-06T09:27:52;2.07;;;0.30;;
70929;SDS011;58588;48.102;19.682;2023-08-06T09:30:54;0.88;;;0.10;;
70929;SDS011;58588;48.102;19.682;2023-08-06T09:33:57;1.45;;;0.10;;
70929;SDS011;58588;48.102;19.682;2023-08-06T09:37:01;0.65;;;0.08;;
70929;SDS011;58588;48.102;19.682;2023-08-06T09:40:20;1.07;;;0.10;;
70929;SDS011;58588;48.102;19.682;2023-08-06T09:43:27;1.40;;;0.03;;
70929;SDS011;58588;48.102;19.682;2023-08-06T09:46:29;1.27;;;0.10;;
70929;SDS011;58588;48.102;19.682;2023-08-06T09:49:42;0.68;;;0.10;;
70929;SDS011;58588;48.102;19.682;2023-08-06T09:52:46;0.38;;;0.08;;
70929;SDS011;58588;48.102;19.682;2023-08-06T09:55:49;0.60;;;0.10;;
70929;SDS011;58588;48.102;19.682;2023-08-06T09:58:52;1.07;;;0.10;;
70929;SDS011;58588;48.102;19.682;2023-08-06T10:01:55;0.40;;;0.10;;
70929;SDS011;58588;48.102;19.682;2023-08-06T10:04:57;0.77;;;0.10;;
70929;SDS011;58588;48.102;19.682;2023-08-06T10:08:00;1.00;;;0.10;;
70929;SDS011;58588;48.102;19.682;2023-08-06T10:11:04;0.77;;;0.10;;
70929;SDS011;58588;48.102;19.682;2023-08-06T10:14:08;0.63;;;0.10;;
70929;SDS011;58588;48.102;19.682;2023-08-06T10:17:22;0.55;;;0.10;;
70929;SDS011;58588;48.102;19.682;2023-08-06T10:20:25;0.90;;;0.13;;
70929;SDS011;58588;48.102;19.682;2023-08-06T10:23:32;0.65;;;0.10;;
70929;SDS011;58588;48.102;19.682;2023-08-06T10:26:35;0.82;;;0.10;;
70929;SDS011;58588;48.102;19.682;2023-08-06T10:29:39;0.80;;;0.10;;
70929;SDS011;58588;48.102;19.682;2023-08-06T10:32:47;0.60;;;0.10;;
70929;SDS011;58588;48.102;19.682;2023-08-06T10:35:50;0.57;;;0.10;;
70929;SDS011;58588;48.102;19.682;2023-08-06T10:38:53;1.42;;;0.10;;
70929;SDS011;58588;48.102;19.682;2023-08-06T10:41:59;0.35;;;0.10;;
70929;SDS011;58588;48.102;19.682;2023-08-06T10:45:14;1.27;;;0.10;;
70929;SDS011;58588;48.102;19.682;2023-08-06T10:48:28;0.52;;;0.10;;
70929;SDS011;58588;48.102;19.682;2023-08-06T10:51:31;0.40;;;0.10;;
70929;SDS011;58588;48.102;19.682;2023-08-06T10:54:33;0.80;;;0.20;;
70929;SDS011;58588;48.102;19.682;2023-08-06T10:57:35;1.83;;;0.10;;
70929;SDS011;58588;48.102;19.682;2023-08-06T11:00:38;0.73;;;0.20;;
70929;SDS011;58588;48.102;19.682;2023-08-06T11:03:41;1.05;;;0.20;;
70929;SDS011;58588;48.102;19.682;2023-08-06T11:06:44;0.77;;;0.10;;
70929;SDS011;58588;48.102;19.682;2023-08-06T11:09:53;1.35;;;0.20;;
70929;SDS011;58588;48.102;19.682;2023-08-06T11:13:02;0.70;;;0.20;;
70929;SDS011;58588;48.102;19.682;2023-08-06T11:16:06;1.03;;;0.20;;
70929;SDS011;58588;48.102;19.682;2023-08-06T11:19:08;1.55;;;0.20;;
70929;SDS011;58588;48.102;19.682;2023-08-06T11:22:10;0.50;;;0.10;;
70929;SDS011;58588;48.102;19.682;2023-08-06T11:25:12;0.68;;;0.20;;
70929;SDS011;58588;48.102;19.682;2023-08-06T11:28:14;1.80;;;0.13;;
70929;SDS011;58588;48.102;19.682;2023-08-06T11:31:20;1.07;;;0.10;;
70929;SDS011;58588;48.102;19.682;2023-08-06T11:34:22;0.93;;;0.20;;
70929;SDS011;58588;48.102;19.682;2023-08-06T11:37:24;1.13;;;0.20;;
70929;SDS011;58588;48.102;19.682;2023-08-06T11:40:26;1.30;;;0.82;;
70929;SDS011;58588;48.102;19.682;2023-08-06T11:43:29;3.53;;;0.20;;
70929;SDS011;58588;48.102;19.682;2023-08-06T11:49:55;0.73;;;0.10;;
70929;SDS011;58588;48.102;19.682;2023-08-06T11:52:58;0.57;;;0.10;;
70929;SDS011;58588;48.102;19.682;2023-08-06T11:56:01;1.88;;;0.20;;
70929;SDS011;58588;48.102;19.682;2023-08-06T11:59:03;1.10;;;0.10;;
70929;SDS011;58588;48.102;19.682;2023-08-06T12:02:08;1.20;;;0.10;;
70929;SDS011;58588;48.102;19.682;2023-08-06T12:05:14;0.73;;;0.10;;
70929;SDS011;58588;48.102;19.682;2023-08-06T12:08:17;0.52;;;0.10;;
70929;SDS011;58588;48.102;19.682;2023-08-06T12:11:20;1.30;;;0.10;;
70929;SDS011;58588;48.102;19.682;2023-08-06T12:14:23;2.47;;;0.20;;
70929;SDS011;58588;48.102;19.682;2023-08-06T12:17:26;0.80;;;0.10;;
70929;SDS011;58588;48.102;19.682;2023-08-06T12:20:28;0.50;;;0.10;;
70929;SDS011;58588;48.102;19.682;2023-08-06T12:23:30;1.85;;;0.20;;
70929;SDS011;58588;48.102;19.682;2023-08-06T12:26:33;1.27;;;0.10;;
70929;SDS011;58588;48.102;19.682;2023-08-06T12:29:35;2.80;;;0.28;;
70929;SDS011;58588;48.102;19.682;2023-08-06T12:32:38;0.87;;;0.20;;
70929;SDS011;58588;48.102;19.682;2023-08-06T12:35:40;1.27;;;0.20;;
70929;SDS011;58588;48.102;19.682;2023-08-06T12:38:42;3.03;;;0.20;;
70929;SDS011;58588;48.102;19.682;2023-08-06T12:41:44;0.93;;;0.10;;
70929;SDS011;58588;48.102;19.682;2023-08-06T12:44:47;0.55;;;0.10;;
70929;SDS011;58588;48.102;19.682;2023-08-06T12:47:51;2.00;;;0.20;;
70929;SDS011;58588;48.102;19.682;2023-08-06T12:50:53;0.77;;;0.10;;
70929;SDS011;58588;48.102;19.682;2023-08-06T12:53:55;0.73;;;0.10;;
70929;SDS011;58588;48.102;19.682;2023-08-06T12:56:57;0.70;;;0.10;;
70929;SDS011;58588;48.102;19.682;2023-08-06T12:59:58;1.10;;;0.10;;
70929;SDS011;58588;48.102;19.682;2023-08-06T13:03:02;0.53;;;0.10;;
70929;SDS011;58588;48.102;19.682;2023-08-06T13:06:04;1.10;;;0.10;;
70929;SDS011;58588;48.102;19.682;2023-08-06T13:09:06;1.92;;;0.10;;
70929;SDS011;58588;48.102;19.682;2023-08-06T13:12:08;0.40;;;0.10;;
70929;SDS011;58588;48.102;19.682;2023-08-06T13:15:10;4.32;;;0.20;;
70929;SDS011;58588;48.102;19.682;2023-08-06T13:18:13;1.93;;;0.10;;
70929;SDS011;58588;48.102;19.682;2023-08-06T13:21:18;0.85;;;0.10;;
70929;SDS011;58588;48.102;19.682;2023-08-06T13:24:20;1.00;;;0.10;;
70929;SDS011;58588;48.102;19.682;2023-08-06T13:27:22;1.33;;;0.10;;
70929;SDS011;58588;48.102;19.682;2023-08-06T13:30:23;0.60;;;0.10;;
70929;SDS011;58588;48.102;19.682;2023-08-06T13:33:27;1.63;;;0.10;;
70929;SDS011;58588;48.102;19.682;2023-08-06T13:36:29;0.47;;;0.10;;
70929;SDS011;58588;48.102;19.682;2023-08-06T13:39:31;0.40;;;0.10;;
70929;SDS011;58588;48.102;19.682;2023-08-06T13:42:33;0.85;;;0.10;;
70929;SDS011;58588;48.102;19.682;2023-08-06T13:45:35;0.70;;;0.10;;
70929;SDS011;58588;48.102;19.682;2023-08-06T13:48:39;0.53;;;0.10;;
70929;SDS011;58588;48.102;19.682;2023-08-06T13:51:41;0.30;;;0.10;;
70929;SDS011;58588;48.102;19.682;2023-08-06T13:54:43;0.63;;;0.10;;
70929;SDS011;58588;48.102;19.682;2023-08-06T13:57:45;1.30;;;0.10;;
70929;SDS011;58588;48.102;19.682;2023-08-06T14:00:47;5.20;;;0.20;;
70929;SDS011;58588;48.102;19.682;2023-08-06T14:03:50;0.80;;;0.10;;
70929;SDS011;58588;48.102;19.682;2023-08-06T14:06:53;0.55;;;0.10;;
70929;SDS011;58588;48.102;19.682;2023-08-06T14:09:55;2.20;;;0.20;;
70929;SDS011;58588;48.102;19.682;2023-08-06T14:12:58;1.20;;;0.10;;
70929;SDS011;58588;48.102;19.682;2023-08-06T14:16:00;0.65;;;0.10;;
70929;SDS011;58588;48.102;19.682;2023-08-06T14:19:03;0.40;;;0.10;;
70929;SDS011;58588;48.102;19.682;2023-08-06T14:22:05;5.28;;;0.30;;
70929;SDS011;58588;48.102;19.682;2023-08-06T14:25:07;0.73;;;0.10;;
70929;SDS011;58588;48.102;19.682;2023-08-06T14:28:09;2.17;;;0.20;;
70929;SDS011;58588;48.102;19.682;2023-08-06T14:31:12;0.90;;;0.10;;
70929;SDS011;58588;48.102;19.682;2023-08-06T14:34:15;1.80;;;0.83;;
70929;SDS011;58588;48.102;19.682;2023-08-06T14:37:17;0.82;;;0.10;;
70929;SDS011;58588;48.102;19.682;2023-08-06T14:40:19;1.95;;;0.20;;
70929;SDS011;58588;48.102;19.682;2023-08-06T14:43:21;0.40;;;0.00;;
70929;SDS011;58588;48.102;19.682;2023-08-06T14:46:24;2.05;;;0.10;;
70929;SDS011;58588;48.102;19.682;2023-08-06T14:49:27;1.07;;;0.00;;
70929;SDS011;58588;48.102;19.682;2023-08-06T14:52:29;0.68;;;0.10;;
70929;SDS011;58588;48.102;19.682;2023-08-06T14:55:31;0.43;;;0.10;;
70929;SDS011;58588;48.102;19.682;2023-08-06T14:58:33;1.17;;;0.20;;
70929;SDS011;58588;48.102;19.682;2023-08-06T15:01:35;0.68;;;0.10;;
70929;SDS011;58588;48.102;19.682;2023-08-06T15:04:39;1.53;;;0.20;;
70929;SDS011;58588;48.102;19.682;2023-08-06T15:07:40;1.05;;;0.10;;
70929;SDS011;58588;48.102;19.682;2023-08-06T15:10:42;0.70;;;0.10;;
70929;SDS011;58588;48.102;19.682;2023-08-06T15:13:50;1.73;;;0.10;;
70929;SDS011;58588;48.102;19.682;2023-08-06T15:16:52;0.57;;;0.10;;
70929;SDS011;58588;48.102;19.682;2023-08-06T15:19:58;2.90;;;0.10;;
70929;SDS011;58588;48.102;19.682;2023-08-06T15:23:00;1.88;;;0.10;;
70929;SDS011;58588;48.102;19.682;2023-08-06T15:26:02;0.80;;;0.20;;
70929;SDS011;58588;48.102;19.682;2023-08-06T15:29:03;3.28;;;0.10;;
70929;SDS011;58588;48.102;19.682;2023-08-06T15:32:06;1.30;;;0.10;;
70929;SDS011;58588;48.102;19.682;2023-08-06T15:35:10;1.10;;;0.10;;
70929;SDS011;58588;48.102;19.682;2023-08-06T15:38:12;3.30;;;0.17;;
70929;SDS011;58588;48.102;19.682;2023-08-06T15:41:13;1.02;;;0.10;;
70929;SDS011;58588;48.102;19.682;2023-08-06T15:44:16;0.93;;;0.10;;
70929;SDS011;58588;48.102;19.682;2023-08-06T15:47:18;1.35;;;0.10;;
70929;SDS011;58588;48.102;19.682;2023-08-06T15:50:21;0.43;;;0.10;;
70929;SDS011;58588;48.102;19.682;2023-08-06T15:53:23;1.05;;;0.20;;
70929;SDS011;58588;48.102;19.682;2023-08-06T15:56:25;2.35;;;0.20;;
70929;SDS011;58588;48.102;19.682;2023-08-06T15:59:27;0.40;;;0.10;;
70929;SDS011;58588;48.102;19.682;2023-08-06T16:02:30;0.95;;;0.10;;
70929;SDS011;58588;48.102;19.682;2023-08-06T16:05:33;1.87;;;0.10;;
70929;SDS011;58588;48.102;19.682;2023-08-06T16:08:36;1.27;;;0.20;;
70929;SDS011;58588;48.102;19.682;2023-08-06T16:11:38;1.17;;;0.10;;
70929;SDS011;58588;48.102;19.682;2023-08-06T16:14:40;0.80;;;0.20;;
70929;SDS011;58588;48.102;19.682;2023-08-06T16:17:42;0.70;;;0.10;;
70929;SDS011;58588;48.102;19.682;2023-08-06T16:20:45;1.30;;;0.30;;
70929;SDS011;58588;48.102;19.682;2023-08-06T16:23:47;1.10;;;0.10;;
70929;SDS011;58588;48.102;19.682;2023-08-06T16:26:49;2.15;;;0.20;;
70929;SDS011;58588;48.102;19.682;2023-08-06T16:29:51;1.63;;;0.30;;
70929;SDS011;58588;48.102;19.682;2023-08-06T16:32:53;1.13;;;0.20;;
70929;SDS011;58588;48.102;19.682;2023-08-06T16:35:57;0.80;;;0.10;;
70929;SDS011;58588;48.102;19.682;2023-08-06T16:38:59;1.02;;;0.20;;
70929;SDS011;58588;48.102;19.682;2023-08-06T16:42:02;0.63;;;0.10;;
70929;SDS011;58588;48.102;19.682;2023-08-06T16:45:07;0.45;;;0.10;;
70929;SDS011;58588;48.102;19.682;2023-08-06T16:48:09;0.87;;;0.10;;
70929;SDS011;58588;48.102;19.682;2023-08-06T16:51:13;0.90;;;0.20;;
70929;SDS011;58588;48.102;19.682;2023-08-06T16:54:16;1.75;;;0.20;;
70929;SDS011;58588;48.102;19.682;2023-08-06T16:57:18;1.05;;;0.20;;
70929;SDS011;58588;48.102;19.682;2023-08-06T17:00:20;1.58;;;0.28;;
70929;SDS011;58588;48.102;19.682;2023-08-06T17:03:22;2.80;;;0.40;;
70929;SDS011;58588;48.102;19.682;2023-08-06T17:06:25;2.83;;;0.40;;
70929;SDS011;58588;48.102;19.682;2023-08-06T17:09:27;2.95;;;0.40;;
70929;SDS011;58588;48.102;19.682;2023-08-06T17:12:29;2.55;;;0.43;;
70929;SDS011;58588;48.102;19.682;2023-08-06T17:15:31;2.55;;;0.43;;
70929;SDS011;58588;48.102;19.682;2023-08-06T17:18:33;2.00;;;0.40;;
70929;SDS011;58588;48.102;19.682;2023-08-06T17:21:36;2.47;;;0.40;;
70929;SDS011;58588;48.102;19.682;2023-08-06T17:24:39;2.63;;;0.50;;
70929;SDS011;58588;48.102;19.682;2023-08-06T17:27:41;2.22;;;0.43;;
70929;SDS011;58588;48.102;19.682;2023-08-06T17:30:43;2.38;;;0.50;;
70929;SDS011;58588;48.102;19.682;2023-08-06T17:33:45;2.20;;;0.50;;
70929;SDS011;58588;48.102;19.682;2023-08-06T17:41:04;2.55;;;0.55;;
70929;SDS011;58588;48.102;19.682;2023-08-06T17:44:06;1.63;;;0.40;;
70929;SDS011;58588;48.102;19.682;2023-08-06T17:47:08;1.92;;;0.40;;
70929;SDS011;58588;48.102;19.682;2023-08-06T17:50:10;2.13;;;0.40;;
70929;SDS011;58588;48.102;19.682;2023-08-06T17:53:12;3.13;;;0.50;;
70929;SDS011;58588;48.102;19.682;2023-08-06T17:56:15;2.40;;;0.30;;
70929;SDS011;58588;48.102;19.682;2023-08-06T17:59:17;1.60;;;0.30;;
70929;SDS011;58588;48.102;19.682;2023-08-06T18:02:19;2.90;;;0.30;;
70929;SDS011;58588;48.102;19.682;2023-08-06T18:05:21;1.30;;;0.20;;
70929;SDS011;58588;48.102;19.682;2023-08-06T18:08:23;1.53;;;0.30;;